KBPI/BPI METAR and TAF weather

Enter ICAO airport designator
Station Type Date Time Source
KBPI METAR 2018/04/27 00:53 UTC NOAA

KBPI 270053Z AUTO 00000KT 10SM CLR 17/M12 A3023 RMK AO2 SLP197 T01671117


Station Type Date Time Source
KBPI Decoded METAR 2018/04/27 00:53 UTC NOAA

BIG PINEY-MARBLETON AIRPORT, WY, United States (KBPI) 42-35N 110-06W 2117M
Apr 26, 2018 - 08:53 PM EDT / 2018.04.27 0053 UTC
Wind: Calm:0
Visibility: 10 mile(s):0
Sky conditions: clear
Temperature: 62.1 F (16.7 C)
Dew Point: 10.9 F (-11.7 C)
Relative Humidity: 13%
Pressure (altimeter): 30.23 in. Hg (1023 hPa)
ob: KBPI 270053Z AUTO 00000KT 10SM CLR 17/M12 A3023 RMK AO2 SLP197 T01671117
cycle: 1

Station Type Date Time Source
KBPI TAF 2018/04/26 18:22 UTC NOAA

TAF KBPI 261720Z 2618/2718 16009KT P6SM SKC
FM270000 VRB05KT P6SM SKC
FM271400 18006KT P6SM SKC


Example: see airport list